Terminal Aerodrome Forecast
Issued by NWS

Home | Current Version | Previous Version | Text Only | Print | Product List | Glossary On
Versions: 1 2 3 4 5 6 7 8 9 10 11 12 13 14 15 16 17 18 19
000
FTUS43 KLSX 181700
TAFCPS
TAF
KCPS 181721Z 1818/1918 07004KT P6SM BKN035
     FM181900 09007KT P6SM SCT040
     FM190100 VRB03KT P6SM SKC
     FM190900 VRB03KT 5SM BR SKC
     FM191500 14007KT P6SM SKC=

USA.gov is the U.S. government's official web portal to all federal, state and local government web resources and services.